LFLC/CFE METAR and TAF weather

Enter ICAO airport designator
Station Type Date Time Source
LFLC METAR 2021/09/25 04:00 UTC NOAA

LFLC 250400Z AUTO VRB03KT CAVOK 15/12 Q1016 TEMPO 3000 BR


Station Type Date Time Source
LFLC Decoded METAR 2021/09/25 04:00 UTC NOAA

Clermont-Ferrand, France (LFLC) 45-47N 003-10E 330M
Sep 25, 2021 - 12:00 AM EDT / 2021.09.25 0400 UTC
Wind: Variable at 3 MPH (3 KT):0
Visibility: greater than 7 mile(s):0
Temperature: 59 F (15 C)
Dew Point: 53 F (12 C)
Relative Humidity: 82%
Pressure (altimeter): 30.00 in. Hg (1016 hPa)
ob: LFLC 250400Z AUTO VRB03KT CAVOK 15/12 Q1016 TEMPO 3000 BR
cycle: 4

Station Type Date Time Source
LFLC TAF 2021/09/24 18:21 UTC NOAA

TAF LFLC 241700Z 2418/2518 VRB02KT CAVOK PROB40
TEMPO 2503/2507 3000 BR
BECMG 2506/2508 18008KT PROB40
TEMPO 2514/2516 -SHRA FEW050CB BKN090

Example: see airport list